sensor_id;sensor_type;location;lat;lon;timestamp;temperature;humidity
78876;DHT22;68253;52.506;5.486;2023-07-29T00:01:33;18.80;72.70
78876;DHT22;68253;52.506;5.486;2023-07-29T00:04:00;18.80;72.60
78876;DHT22;68253;52.506;5.486;2023-07-29T00:06:27;18.70;72.70
78876;DHT22;68253;52.506;5.486;2023-07-29T00:08:53;18.70;72.70
78876;DHT22;68253;52.506;5.486;2023-07-29T00:11:19;18.70;72.60
78876;DHT22;68253;52.506;5.486;2023-07-29T00:13:45;18.70;72.60
78876;DHT22;68253;52.506;5.486;2023-07-29T00:16:13;18.60;72.60
78876;DHT22;68253;52.506;5.486;2023-07-29T00:18:41;18.60;72.60
78876;DHT22;68253;52.506;5.486;2023-07-29T00:21:07;18.60;72.60
78876;DHT22;68253;52.506;5.486;2023-07-29T00:23:33;18.60;72.60
78876;DHT22;68253;52.506;5.486;2023-07-29T00:25:59;18.50;72.60
78876;DHT22;68253;52.506;5.486;2023-07-29T00:28:26;18.50;72.60
78876;DHT22;68253;52.506;5.486;2023-07-29T00:30:52;18.40;72.60
78876;DHT22;68253;52.506;5.486;2023-07-29T00:33:18;18.40;72.60
78876;DHT22;68253;52.506;5.486;2023-07-29T00:35:45;18.40;72.70
78876;DHT22;68253;52.506;5.486;2023-07-29T00:38:11;18.30;72.70
78876;DHT22;68253;52.506;5.486;2023-07-29T00:40:37;18.30;72.80
78876;DHT22;68253;52.506;5.486;2023-07-29T00:43:04;18.30;72.80
78876;DHT22;68253;52.506;5.486;2023-07-29T00:45:30;18.30;72.80
78876;DHT22;68253;52.506;5.486;2023-07-29T00:47:57;18.30;72.80
78876;DHT22;68253;52.506;5.486;2023-07-29T00:50:24;18.30;72.70
78876;DHT22;68253;52.506;5.486;2023-07-29T00:52:52;18.30;72.60
78876;DHT22;68253;52.506;5.486;2023-07-29T00:55:19;18.30;72.50
78876;DHT22;68253;52.506;5.486;2023-07-29T00:57:45;18.30;72.50
78876;DHT22;68253;52.506;5.486;2023-07-29T01:00:15;18.30;72.40
78876;DHT22;68253;52.506;5.486;2023-07-29T01:02:45;18.30;72.20
78876;DHT22;68253;52.506;5.486;2023-07-29T01:05:14;18.40;72.10
78876;DHT22;68253;52.506;5.486;2023-07-29T01:10:39;18.40;72.10
78876;DHT22;68253;52.506;5.486;2023-07-29T01:13:19;18.40;72.10
78876;DHT22;68253;52.506;5.486;2023-07-29T01:15:55;18.50;72.10
78876;DHT22;68253;52.506;5.486;2023-07-29T01:18:28;18.50;72.00
78876;DHT22;68253;52.506;5.486;2023-07-29T01:20:59;18.50;71.90
78876;DHT22;68253;52.506;5.486;2023-07-29T01:23:29;18.50;71.70
78876;DHT22;68253;52.506;5.486;2023-07-29T01:25:56;18.50;71.50
78876;DHT22;68253;52.506;5.486;2023-07-29T01:28:22;18.60;71.50
78876;DHT22;68253;52.506;5.486;2023-07-29T01:30:52;18.50;71.50
78876;DHT22;68253;52.506;5.486;2023-07-29T01:33:26;18.60;71.60
78876;DHT22;68253;52.506;5.486;2023-07-29T01:36:02;18.60;71.60
78876;DHT22;68253;52.506;5.486;2023-07-29T01:38:31;18.60;71.70
78876;DHT22;68253;52.506;5.486;2023-07-29T01:41:01;18.60;71.50
78876;DHT22;68253;52.506;5.486;2023-07-29T01:43:31;18.60;71.50
78876;DHT22;68253;52.506;5.486;2023-07-29T01:45:57;18.60;71.40
78876;DHT22;68253;52.506;5.486;2023-07-29T01:48:24;18.60;71.30
78876;DHT22;68253;52.506;5.486;2023-07-29T01:50:50;18.60;71.10
78876;DHT22;68253;52.506;5.486;2023-07-29T01:53:16;18.60;71.10
78876;DHT22;68253;52.506;5.486;2023-07-29T01:55:44;18.60;71.00
78876;DHT22;68253;52.506;5.486;2023-07-29T01:58:11;18.60;71.00
78876;DHT22;68253;52.506;5.486;2023-07-29T02:00:38;18.60;70.90
78876;DHT22;68253;52.506;5.486;2023-07-29T02:03:05;18.60;70.90
78876;DHT22;68253;52.506;5.486;2023-07-29T02:05:31;18.60;70.70
78876;DHT22;68253;52.506;5.486;2023-07-29T02:07:58;18.70;70.70
78876;DHT22;68253;52.506;5.486;2023-07-29T02:10:24;18.60;70.50
78876;DHT22;68253;52.506;5.486;2023-07-29T02:12:50;18.60;70.50
78876;DHT22;68253;52.506;5.486;2023-07-29T02:15:17;18.60;70.40
78876;DHT22;68253;52.506;5.486;2023-07-29T02:17:43;18.60;70.50
78876;DHT22;68253;52.506;5.486;2023-07-29T02:20:09;18.60;70.50
78876;DHT22;68253;52.506;5.486;2023-07-29T02:22:37;18.60;70.30
78876;DHT22;68253;52.506;5.486;2023-07-29T02:25:03;18.60;70.30
78876;DHT22;68253;52.506;5.486;2023-07-29T02:27:29;18.60;70.30
78876;DHT22;68253;52.506;5.486;2023-07-29T02:29:56;18.60;70.30
78876;DHT22;68253;52.506;5.486;2023-07-29T02:32:22;18.60;70.20
78876;DHT22;68253;52.506;5.486;2023-07-29T02:34:48;18.50;70.20
78876;DHT22;68253;52.506;5.486;2023-07-29T02:37:15;18.50;70.20
78876;DHT22;68253;52.506;5.486;2023-07-29T02:39:41;18.50;70.20
78876;DHT22;68253;52.506;5.486;2023-07-29T02:42:07;18.50;70.10
78876;DHT22;68253;52.506;5.486;2023-07-29T02:44:33;18.50;70.10
78876;DHT22;68253;52.506;5.486;2023-07-29T02:47:00;18.50;70.10
78876;DHT22;68253;52.506;5.486;2023-07-29T02:49:26;18.50;70.10
78876;DHT22;68253;52.506;5.486;2023-07-29T02:51:52;18.40;70.10
78876;DHT22;68253;52.506;5.486;2023-07-29T02:54:18;18.40;70.20
78876;DHT22;68253;52.506;5.486;2023-07-29T02:56:44;18.40;70.20
78876;DHT22;68253;52.506;5.486;2023-07-29T02:59:10;18.40;70.30
78876;DHT22;68253;52.506;5.486;2023-07-29T03:01:36;18.40;70.40
78876;DHT22;68253;52.506;5.486;2023-07-29T03:04:03;18.40;70.50
78876;DHT22;68253;52.506;5.486;2023-07-29T03:06:29;18.30;70.50
78876;DHT22;68253;52.506;5.486;2023-07-29T03:08:55;18.30;70.60
78876;DHT22;68253;52.506;5.486;2023-07-29T03:11:21;18.30;70.70
78876;DHT22;68253;52.506;5.486;2023-07-29T03:13:48;18.30;70.70
78876;DHT22;68253;52.506;5.486;2023-07-29T03:16:16;18.30;70.90
78876;DHT22;68253;52.506;5.486;2023-07-29T03:18:49;18.20;70.90
78876;DHT22;68253;52.506;5.486;2023-07-29T03:21:16;18.20;71.10
78876;DHT22;68253;52.506;5.486;2023-07-29T03:23:42;18.20;71.20
78876;DHT22;68253;52.506;5.486;2023-07-29T03:26:08;18.10;71.20
78876;DHT22;68253;52.506;5.486;2023-07-29T03:28:38;18.10;71.30
78876;DHT22;68253;52.506;5.486;2023-07-29T03:31:04;18.10;71.40
78876;DHT22;68253;52.506;5.486;2023-07-29T03:33:30;18.00;71.70
78876;DHT22;68253;52.506;5.486;2023-07-29T03:35:56;18.00;71.70
78876;DHT22;68253;52.506;5.486;2023-07-29T03:38:23;18.00;71.80
78876;DHT22;68253;52.506;5.486;2023-07-29T03:40:50;18.00;71.90
78876;DHT22;68253;52.506;5.486;2023-07-29T03:43:16;18.00;71.90
78876;DHT22;68253;52.506;5.486;2023-07-29T03:45:42;18.00;72.00
78876;DHT22;68253;52.506;5.486;2023-07-29T03:48:09;17.90;72.00
78876;DHT22;68253;52.506;5.486;2023-07-29T03:50:35;17.90;72.10
78876;DHT22;68253;52.506;5.486;2023-07-29T03:53:05;17.90;72.10
78876;DHT22;68253;52.506;5.486;2023-07-29T03:55:32;17.90;72.20
78876;DHT22;68253;52.506;5.486;2023-07-29T03:57:59;17.90;72.20
78876;DHT22;68253;52.506;5.486;2023-07-29T04:00:25;17.90;72.20
78876;DHT22;68253;52.506;5.486;2023-07-29T04:02:52;17.80;72.30
78876;DHT22;68253;52.506;5.486;2023-07-29T04:05:19;17.90;72.30
78876;DHT22;68253;52.506;5.486;2023-07-29T04:07:45;17.90;72.40
78876;DHT22;68253;52.506;5.486;2023-07-29T04:10:11;17.90;72.50
78876;DHT22;68253;52.506;5.486;2023-07-29T04:12:38;17.90;72.50
78876;DHT22;68253;52.506;5.486;2023-07-29T04:15:05;17.90;72.50
78876;DHT22;68253;52.506;5.486;2023-07-29T04:17:31;17.90;72.50
78876;DHT22;68253;52.506;5.486;2023-07-29T04:19:57;17.90;72.60
78876;DHT22;68253;52.506;5.486;2023-07-29T04:22:28;17.90;72.60
78876;DHT22;68253;52.506;5.486;2023-07-29T04:24:55;17.90;72.60
78876;DHT22;68253;52.506;5.486;2023-07-29T04:27:21;17.90;72.60
78876;DHT22;68253;52.506;5.486;2023-07-29T04:29:47;17.80;72.70
78876;DHT22;68253;52.506;5.486;2023-07-29T04:32:13;17.80;72.70
78876;DHT22;68253;52.506;5.486;2023-07-29T04:34:42;17.80;72.70
78876;DHT22;68253;52.506;5.486;2023-07-29T04:37:08;17.80;72.70
78876;DHT22;68253;52.506;5.486;2023-07-29T04:39:34;17.80;72.70
78876;DHT22;68253;52.506;5.486;2023-07-29T04:42:00;17.90;72.70
78876;DHT22;68253;52.506;5.486;2023-07-29T04:44:26;17.90;72.70
78876;DHT22;68253;52.506;5.486;2023-07-29T04:46:53;17.80;72.80
78876;DHT22;68253;52.506;5.486;2023-07-29T04:49:19;17.80;72.70
78876;DHT22;68253;52.506;5.486;2023-07-29T04:51:46;17.80;72.70
78876;DHT22;68253;52.506;5.486;2023-07-29T04:54:12;17.80;72.80
78876;DHT22;68253;52.506;5.486;2023-07-29T04:56:38;17.90;72.80
78876;DHT22;68253;52.506;5.486;2023-07-29T04:59:04;17.90;72.70
78876;DHT22;68253;52.506;5.486;2023-07-29T05:01:30;18.00;72.70
78876;DHT22;68253;52.506;5.486;2023-07-29T05:03:56;18.00;72.60
78876;DHT22;68253;52.506;5.486;2023-07-29T05:06:24;18.00;72.60
78876;DHT22;68253;52.506;5.486;2023-07-29T05:08:51;18.00;72.60
78876;DHT22;68253;52.506;5.486;2023-07-29T05:11:17;18.00;72.60
78876;DHT22;68253;52.506;5.486;2023-07-29T05:13:43;18.00;72.60
78876;DHT22;68253;52.506;5.486;2023-07-29T05:16:10;18.00;72.60
78876;DHT22;68253;52.506;5.486;2023-07-29T05:18:37;18.00;72.60
78876;DHT22;68253;52.506;5.486;2023-07-29T05:21:04;18.00;72.60
78876;DHT22;68253;52.506;5.486;2023-07-29T05:23:30;18.00;72.60
78876;DHT22;68253;52.506;5.486;2023-07-29T05:25:56;18.10;72.50
78876;DHT22;68253;52.506;5.486;2023-07-29T05:28:22;18.10;72.50
78876;DHT22;68253;52.506;5.486;2023-07-29T05:30:49;18.20;72.50
78876;DHT22;68253;52.506;5.486;2023-07-29T05:33:15;18.20;72.50
78876;DHT22;68253;52.506;5.486;2023-07-29T05:35:41;18.40;72.30
78876;DHT22;68253;52.506;5.486;2023-07-29T05:38:08;18.40;72.20
78876;DHT22;68253;52.506;5.486;2023-07-29T05:40:34;18.50;72.00
78876;DHT22;68253;52.506;5.486;2023-07-29T05:43:00;18.60;71.60
78876;DHT22;68253;52.506;5.486;2023-07-29T05:45:27;18.60;71.60
78876;DHT22;68253;52.506;5.486;2023-07-29T05:47:53;18.60;71.60
78876;DHT22;68253;52.506;5.486;2023-07-29T05:50:20;18.60;71.70
78876;DHT22;68253;52.506;5.486;2023-07-29T05:52:47;18.70;71.70
78876;DHT22;68253;52.506;5.486;2023-07-29T05:55:13;18.80;71.50
78876;DHT22;68253;52.506;5.486;2023-07-29T05:57:39;18.80;71.40
78876;DHT22;68253;52.506;5.486;2023-07-29T06:00:07;18.90;71.20
78876;DHT22;68253;52.506;5.486;2023-07-29T06:02:39;18.90;71.20
78876;DHT22;68253;52.506;5.486;2023-07-29T06:05:07;19.00;71.00
78876;DHT22;68253;52.506;5.486;2023-07-29T06:07:34;19.00;71.00
78876;DHT22;68253;52.506;5.486;2023-07-29T06:10:00;19.10;71.00
78876;DHT22;68253;52.506;5.486;2023-07-29T06:12:26;19.10;70.70
78876;DHT22;68253;52.506;5.486;2023-07-29T06:14:52;19.10;70.70
78876;DHT22;68253;52.506;5.486;2023-07-29T06:17:18;19.00;70.80
78876;DHT22;68253;52.506;5.486;2023-07-29T06:19:45;19.00;70.80
78876;DHT22;68253;52.506;5.486;2023-07-29T06:22:12;18.90;71.00
78876;DHT22;68253;52.506;5.486;2023-07-29T06:24:38;18.90;71.20
78876;DHT22;68253;52.506;5.486;2023-07-29T06:27:04;18.90;71.20
78876;DHT22;68253;52.506;5.486;2023-07-29T06:29:30;19.00;71.40
78876;DHT22;68253;52.506;5.486;2023-07-29T06:31:57;19.20;71.20
78876;DHT22;68253;52.506;5.486;2023-07-29T06:34:24;19.30;70.80
78876;DHT22;68253;52.506;5.486;2023-07-29T06:36:50;19.50;70.70
78876;DHT22;68253;52.506;5.486;2023-07-29T06:39:16;19.70;70.50
78876;DHT22;68253;52.506;5.486;2023-07-29T06:41:42;20.00;69.80
78876;DHT22;68253;52.506;5.486;2023-07-29T06:44:08;20.20;69.00
78876;DHT22;68253;52.506;5.486;2023-07-29T06:46:34;20.20;68.90
78876;DHT22;68253;52.506;5.486;2023-07-29T06:49:00;20.10;69.00
78876;DHT22;68253;52.506;5.486;2023-07-29T06:51:26;20.10;69.00
78876;DHT22;68253;52.506;5.486;2023-07-29T06:53:55;20.00;69.10
78876;DHT22;68253;52.506;5.486;2023-07-29T06:56:21;20.00;69.20
78876;DHT22;68253;52.506;5.486;2023-07-29T06:58:47;20.00;69.30
78876;DHT22;68253;52.506;5.486;2023-07-29T07:01:13;20.00;69.00
78876;DHT22;68253;52.506;5.486;2023-07-29T07:03:39;20.00;69.20
78876;DHT22;68253;52.506;5.486;2023-07-29T07:06:05;20.10;69.10
78876;DHT22;68253;52.506;5.486;2023-07-29T07:08:31;20.10;69.10
78876;DHT22;68253;52.506;5.486;2023-07-29T07:10:58;20.20;69.00
78876;DHT22;68253;52.506;5.486;2023-07-29T07:13:24;20.30;68.80
78876;DHT22;68253;52.506;5.486;2023-07-29T07:15:50;20.50;68.80
78876;DHT22;68253;52.506;5.486;2023-07-29T07:18:16;20.60;68.50
78876;DHT22;68253;52.506;5.486;2023-07-29T07:20:42;20.70;68.10
78876;DHT22;68253;52.506;5.486;2023-07-29T07:23:08;20.80;67.90
78876;DHT22;68253;52.506;5.486;2023-07-29T07:25:37;20.70;67.90
78876;DHT22;68253;52.506;5.486;2023-07-29T07:28:04;20.70;68.00
78876;DHT22;68253;52.506;5.486;2023-07-29T07:30:30;20.50;67.90
78876;DHT22;68253;52.506;5.486;2023-07-29T07:32:56;20.40;68.40
78876;DHT22;68253;52.506;5.486;2023-07-29T07:35:22;20.30;68.60
78876;DHT22;68253;52.506;5.486;2023-07-29T07:37:48;20.30;68.80
78876;DHT22;68253;52.506;5.486;2023-07-29T07:40:14;20.30;68.90
78876;DHT22;68253;52.506;5.486;2023-07-29T07:42:40;20.50;68.70
78876;DHT22;68253;52.506;5.486;2023-07-29T07:45:07;20.60;68.40
78876;DHT22;68253;52.506;5.486;2023-07-29T07:47:33;20.80;67.70
78876;DHT22;68253;52.506;5.486;2023-07-29T07:49:59;20.80;67.80
78876;DHT22;68253;52.506;5.486;2023-07-29T07:52:25;20.90;68.00
78876;DHT22;68253;52.506;5.486;2023-07-29T07:54:54;21.10;68.10
78876;DHT22;68253;52.506;5.486;2023-07-29T07:57:21;21.30;67.60
78876;DHT22;68253;52.506;5.486;2023-07-29T07:59:48;21.70;67.40
78876;DHT22;68253;52.506;5.486;2023-07-29T08:02:14;22.10;65.90
78876;DHT22;68253;52.506;5.486;2023-07-29T08:04:40;22.20;65.40
78876;DHT22;68253;52.506;5.486;2023-07-29T08:07:06;22.10;65.60
78876;DHT22;68253;52.506;5.486;2023-07-29T08:09:32;22.10;65.60
78876;DHT22;68253;52.506;5.486;2023-07-29T08:11:59;21.90;65.40
78876;DHT22;68253;52.506;5.486;2023-07-29T08:14:27;21.80;65.90
78876;DHT22;68253;52.506;5.486;2023-07-29T08:16:53;21.70;65.90
78876;DHT22;68253;52.506;5.486;2023-07-29T08:19:19;21.70;66.20
78876;DHT22;68253;52.506;5.486;2023-07-29T08:21:45;21.70;66.50
78876;DHT22;68253;52.506;5.486;2023-07-29T08:24:11;21.80;66.30
78876;DHT22;68253;52.506;5.486;2023-07-29T08:26:37;21.90;66.10
78876;DHT22;68253;52.506;5.486;2023-07-29T08:29:03;22.10;65.60
78876;DHT22;68253;52.506;5.486;2023-07-29T08:31:30;22.20;65.70
78876;DHT22;68253;52.506;5.486;2023-07-29T08:33:59;22.30;65.50
78876;DHT22;68253;52.506;5.486;2023-07-29T08:36:26;22.50;65.60
78876;DHT22;68253;52.506;5.486;2023-07-29T08:38:52;22.60;65.10
78876;DHT22;68253;52.506;5.486;2023-07-29T08:41:38;22.60;64.40
78876;DHT22;68253;52.506;5.486;2023-07-29T08:44:12;22.50;64.80
78876;DHT22;68253;52.506;5.486;2023-07-29T08:46:41;22.30;64.40
78876;DHT22;68253;52.506;5.486;2023-07-29T08:49:07;22.00;65.30
78876;DHT22;68253;52.506;5.486;2023-07-29T08:51:35;21.70;66.80
78876;DHT22;68253;52.506;5.486;2023-07-29T08:54:02;21.50;68.00
78876;DHT22;68253;52.506;5.486;2023-07-29T08:56:28;21.30;69.00
78876;DHT22;68253;52.506;5.486;2023-07-29T08:58:56;21.20;69.30
78876;DHT22;68253;52.506;5.486;2023-07-29T09:01:22;21.20;69.00
78876;DHT22;68253;52.506;5.486;2023-07-29T09:03:48;21.20;68.40
78876;DHT22;68253;52.506;5.486;2023-07-29T09:06:16;21.20;68.20
78876;DHT22;68253;52.506;5.486;2023-07-29T09:08:43;21.30;68.30
78876;DHT22;68253;52.506;5.486;2023-07-29T09:11:13;21.50;68.00
78876;DHT22;68253;52.506;5.486;2023-07-29T09:13:40;21.70;67.80
78876;DHT22;68253;52.506;5.486;2023-07-29T09:16:06;21.70;67.60
78876;DHT22;68253;52.506;5.486;2023-07-29T09:18:32;21.70;67.30
78876;DHT22;68253;52.506;5.486;2023-07-29T09:20:59;21.90;67.30
78876;DHT22;68253;52.506;5.486;2023-07-29T09:23:27;22.30;65.40
78876;DHT22;68253;52.506;5.486;2023-07-29T09:26:03;22.50;64.40
78876;DHT22;68253;52.506;5.486;2023-07-29T09:28:34;22.60;65.00
78876;DHT22;68253;52.506;5.486;2023-07-29T09:31:00;22.90;64.00
78876;DHT22;68253;52.506;5.486;2023-07-29T09:33:27;23.10;63.60
78876;DHT22;68253;52.506;5.486;2023-07-29T09:35:53;23.20;63.10
78876;DHT22;68253;52.506;5.486;2023-07-29T09:38:26;23.10;63.40
78876;DHT22;68253;52.506;5.486;2023-07-29T09:40:55;23.10;62.20
78876;DHT22;68253;52.506;5.486;2023-07-29T09:43:29;22.90;61.60
78876;DHT22;68253;52.506;5.486;2023-07-29T09:46:02;22.60;62.40
78876;DHT22;68253;52.506;5.486;2023-07-29T09:48:35;22.30;62.70
78876;DHT22;68253;52.506;5.486;2023-07-29T09:51:15;22.20;62.80
78876;DHT22;68253;52.506;5.486;2023-07-29T09:53:43;22.00;63.50
78876;DHT22;68253;52.506;5.486;2023-07-29T09:56:10;21.90;64.00
78876;DHT22;68253;52.506;5.486;2023-07-29T09:58:36;21.70;63.60
78876;DHT22;68253;52.506;5.486;2023-07-29T10:01:07;21.50;64.40
78876;DHT22;68253;52.506;5.486;2023-07-29T10:03:34;21.40;65.10
78876;DHT22;68253;52.506;5.486;2023-07-29T10:06:03;21.30;65.20
78876;DHT22;68253;52.506;5.486;2023-07-29T10:08:30;21.20;65.60
78876;DHT22;68253;52.506;5.486;2023-07-29T10:11:08;21.20;65.40
78876;DHT22;68253;52.506;5.486;2023-07-29T10:13:35;21.20;65.50
78876;DHT22;68253;52.506;5.486;2023-07-29T10:16:02;21.30;65.40
78876;DHT22;68253;52.506;5.486;2023-07-29T10:18:29;21.40;65.50
78876;DHT22;68253;52.506;5.486;2023-07-29T10:20:58;21.60;65.60
78876;DHT22;68253;52.506;5.486;2023-07-29T10:23:26;21.90;65.00
78876;DHT22;68253;52.506;5.486;2023-07-29T10:26:03;22.30;63.90
78876;DHT22;68253;52.506;5.486;2023-07-29T10:28:30;22.50;62.20
78876;DHT22;68253;52.506;5.486;2023-07-29T10:30:58;22.40;62.70
78876;DHT22;68253;52.506;5.486;2023-07-29T10:33:25;22.40;62.20
78876;DHT22;68253;52.506;5.486;2023-07-29T10:35:52;22.50;62.50
78876;DHT22;68253;52.506;5.486;2023-07-29T10:38:22;22.70;62.50
78876;DHT22;68253;52.506;5.486;2023-07-29T10:40:50;23.10;62.40
78876;DHT22;68253;52.506;5.486;2023-07-29T10:45:59;24.00;60.70
78876;DHT22;68253;52.506;5.486;2023-07-29T10:48:41;24.30;59.50
78876;DHT22;68253;52.506;5.486;2023-07-29T10:51:30;24.50;59.40
78876;DHT22;68253;52.506;5.486;2023-07-29T10:54:02;24.50;59.60
78876;DHT22;68253;52.506;5.486;2023-07-29T10:56:33;24.40;59.40
78876;DHT22;68253;52.506;5.486;2023-07-29T11:01:40;24.50;59.90
78876;DHT22;68253;52.506;5.486;2023-07-29T11:09:40;25.00;59.10
78876;DHT22;68253;52.506;5.486;2023-07-29T11:12:39;25.00;59.10
78876;DHT22;68253;52.506;5.486;2023-07-29T11:17:36;24.90;58.80
78876;DHT22;68253;52.506;5.486;2023-07-29T11:20:03;24.70;59.00
78876;DHT22;68253;52.506;5.486;2023-07-29T11:22:30;24.40;59.00
78876;DHT22;68253;52.506;5.486;2023-07-29T11:24:57;24.20;59.60
78876;DHT22;68253;52.506;5.486;2023-07-29T11:27:23;24.20;59.60
78876;DHT22;68253;52.506;5.486;2023-07-29T11:29:49;24.20;59.90
78876;DHT22;68253;52.506;5.486;2023-07-29T11:32:16;24.20;59.70
78876;DHT22;68253;52.506;5.486;2023-07-29T11:34:42;24.00;59.90
78876;DHT22;68253;52.506;5.486;2023-07-29T11:37:10;23.90;60.10
78876;DHT22;68253;52.506;5.486;2023-07-29T11:39:41;23.80;60.10
78876;DHT22;68253;52.506;5.486;2023-07-29T11:42:11;23.60;60.30
78876;DHT22;68253;52.506;5.486;2023-07-29T11:44:37;23.60;60.20
78876;DHT22;68253;52.506;5.486;2023-07-29T11:47:10;23.50;60.30
78876;DHT22;68253;52.506;5.486;2023-07-29T11:49:39;23.50;60.00
78876;DHT22;68253;52.506;5.486;2023-07-29T11:52:10;23.20;60.00
78876;DHT22;68253;52.506;5.486;2023-07-29T11:54:37;23.00;60.60
78876;DHT22;68253;52.506;5.486;2023-07-29T11:57:07;22.80;61.40
78876;DHT22;68253;52.506;5.486;2023-07-29T11:59:37;22.80;62.10
78876;DHT22;68253;52.506;5.486;2023-07-29T12:02:13;23.00;61.40
78876;DHT22;68253;52.506;5.486;2023-07-29T12:04:41;23.30;61.20
78876;DHT22;68253;52.506;5.486;2023-07-29T12:07:08;23.60;60.50
78876;DHT22;68253;52.506;5.486;2023-07-29T12:09:35;23.80;60.50
78876;DHT22;68253;52.506;5.486;2023-07-29T12:12:04;24.00;60.20
78876;DHT22;68253;52.506;5.486;2023-07-29T12:14:30;24.10;60.00
78876;DHT22;68253;52.506;5.486;2023-07-29T12:17:00;24.30;60.20
78876;DHT22;68253;52.506;5.486;2023-07-29T12:19:32;24.40;59.80
78876;DHT22;68253;52.506;5.486;2023-07-29T12:21:59;24.40;59.70
78876;DHT22;68253;52.506;5.486;2023-07-29T12:24:25;24.20;59.80
78876;DHT22;68253;52.506;5.486;2023-07-29T12:26:51;24.20;60.00
78876;DHT22;68253;52.506;5.486;2023-07-29T12:29:19;24.00;60.20
78876;DHT22;68253;52.506;5.486;2023-07-29T12:31:49;24.00;60.30
78876;DHT22;68253;52.506;5.486;2023-07-29T12:34:19;23.90;60.00
78876;DHT22;68253;52.506;5.486;2023-07-29T12:36:48;23.60;60.00
78876;DHT22;68253;52.506;5.486;2023-07-29T12:39:24;23.50;60.70
78876;DHT22;68253;52.506;5.486;2023-07-29T12:41:52;23.40;61.30
78876;DHT22;68253;52.506;5.486;2023-07-29T12:44:18;23.30;61.40
78876;DHT22;68253;52.506;5.486;2023-07-29T12:46:45;23.30;61.70
78876;DHT22;68253;52.506;5.486;2023-07-29T12:49:11;23.20;61.90
78876;DHT22;68253;52.506;5.486;2023-07-29T12:51:37;23.10;62.40
78876;DHT22;68253;52.506;5.486;2023-07-29T12:54:04;22.80;63.10
78876;DHT22;68253;52.506;5.486;2023-07-29T12:56:31;22.50;64.00
78876;DHT22;68253;52.506;5.486;2023-07-29T12:58:58;22.30;65.30
78876;DHT22;68253;52.506;5.486;2023-07-29T13:01:25;22.00;67.00
78876;DHT22;68253;52.506;5.486;2023-07-29T13:03:52;21.70;68.10
78876;DHT22;68253;52.506;5.486;2023-07-29T13:06:18;21.50;68.80
78876;DHT22;68253;52.506;5.486;2023-07-29T13:08:45;21.40;69.50
78876;DHT22;68253;52.506;5.486;2023-07-29T13:11:15;21.30;70.60
78876;DHT22;68253;52.506;5.486;2023-07-29T13:13:41;21.50;70.90
78876;DHT22;68253;52.506;5.486;2023-07-29T13:16:07;21.70;69.50
78876;DHT22;68253;52.506;5.486;2023-07-29T13:18:34;21.90;69.30
78876;DHT22;68253;52.506;5.486;2023-07-29T13:21:00;22.10;68.70
78876;DHT22;68253;52.506;5.486;2023-07-29T13:23:27;22.30;68.90
78876;DHT22;68253;52.506;5.486;2023-07-29T13:25:53;22.70;68.40
78876;DHT22;68253;52.506;5.486;2023-07-29T13:28:20;22.90;68.30
78876;DHT22;68253;52.506;5.486;2023-07-29T13:30:46;23.10;67.20
78876;DHT22;68253;52.506;5.486;2023-07-29T13:33:12;23.20;65.30
78876;DHT22;68253;52.506;5.486;2023-07-29T13:35:38;23.10;64.90
78876;DHT22;68253;52.506;5.486;2023-07-29T13:38:04;23.20;65.60
78876;DHT22;68253;52.506;5.486;2023-07-29T13:40:31;23.40;65.00
78876;DHT22;68253;52.506;5.486;2023-07-29T13:42:57;23.60;64.70
78876;DHT22;68253;52.506;5.486;2023-07-29T13:45:24;23.80;64.00
78876;DHT22;68253;52.506;5.486;2023-07-29T13:47:50;24.00;64.10
78876;DHT22;68253;52.506;5.486;2023-07-29T13:50:17;24.20;64.00
78876;DHT22;68253;52.506;5.486;2023-07-29T13:52:44;24.40;62.20
78876;DHT22;68253;52.506;5.486;2023-07-29T13:55:10;24.40;62.30
78876;DHT22;68253;52.506;5.486;2023-07-29T13:57:38;24.40;63.00
78876;DHT22;68253;52.506;5.486;2023-07-29T14:00:06;24.60;63.20
78876;DHT22;68253;52.506;5.486;2023-07-29T14:02:37;24.80;63.00
78876;DHT22;68253;52.506;5.486;2023-07-29T14:05:03;25.10;61.60
78876;DHT22;68253;52.506;5.486;2023-07-29T14:07:30;25.30;60.50
78876;DHT22;68253;52.506;5.486;2023-07-29T14:09:56;25.30;59.70
78876;DHT22;68253;52.506;5.486;2023-07-29T14:12:22;25.20;60.70
78876;DHT22;68253;52.506;5.486;2023-07-29T14:14:48;25.30;60.70
78876;DHT22;68253;52.506;5.486;2023-07-29T14:17:14;25.30;60.30
78876;DHT22;68253;52.506;5.486;2023-07-29T14:19:40;25.20;60.50
78876;DHT22;68253;52.506;5.486;2023-07-29T14:22:06;25.30;59.80
78876;DHT22;68253;52.506;5.486;2023-07-29T14:24:32;25.20;59.70
78876;DHT22;68253;52.506;5.486;2023-07-29T14:26:58;25.10;60.40
78876;DHT22;68253;52.506;5.486;2023-07-29T14:29:25;25.20;60.50
78876;DHT22;68253;52.506;5.486;2023-07-29T14:31:51;25.30;59.50
78876;DHT22;68253;52.506;5.486;2023-07-29T14:34:17;25.30;59.50
78876;DHT22;68253;52.506;5.486;2023-07-29T14:36:43;25.00;59.70
78876;DHT22;68253;52.506;5.486;2023-07-29T14:39:10;24.80;60.40
78876;DHT22;68253;52.506;5.486;2023-07-29T14:41:38;24.80;61.10
78876;DHT22;68253;52.506;5.486;2023-07-29T14:44:04;24.80;59.80
78876;DHT22;68253;52.506;5.486;2023-07-29T14:46:30;24.80;60.00
78876;DHT22;68253;52.506;5.486;2023-07-29T14:48:56;24.80;60.10
78876;DHT22;68253;52.506;5.486;2023-07-29T14:51:23;24.80;59.80
78876;DHT22;68253;52.506;5.486;2023-07-29T14:53:49;24.60;60.20
78876;DHT22;68253;52.506;5.486;2023-07-29T14:56:15;24.60;60.20
78876;DHT22;68253;52.506;5.486;2023-07-29T14:58:44;24.70;59.60
78876;DHT22;68253;52.506;5.486;2023-07-29T15:01:10;24.80;59.70
78876;DHT22;68253;52.506;5.486;2023-07-29T15:03:36;24.90;59.20
78876;DHT22;68253;52.506;5.486;2023-07-29T15:06:02;24.90;59.30
78876;DHT22;68253;52.506;5.486;2023-07-29T15:08:29;25.00;59.50
78876;DHT22;68253;52.506;5.486;2023-07-29T15:10:55;25.20;59.20
78876;DHT22;68253;52.506;5.486;2023-07-29T15:13:21;25.40;58.80
78876;DHT22;68253;52.506;5.486;2023-07-29T15:15:47;25.50;57.60
78876;DHT22;68253;52.506;5.486;2023-07-29T15:18:15;25.40;57.90
78876;DHT22;68253;52.506;5.486;2023-07-29T15:20:41;25.40;58.40
78876;DHT22;68253;52.506;5.486;2023-07-29T15:23:08;25.50;58.00
78876;DHT22;68253;52.506;5.486;2023-07-29T15:25:34;25.60;58.20
78876;DHT22;68253;52.506;5.486;2023-07-29T15:28:00;25.70;58.50
78876;DHT22;68253;52.506;5.486;2023-07-29T15:30:26;25.90;58.20
78876;DHT22;68253;52.506;5.486;2023-07-29T15:32:52;26.00;57.90
78876;DHT22;68253;52.506;5.486;2023-07-29T15:35:21;26.00;57.80
78876;DHT22;68253;52.506;5.486;2023-07-29T15:37:47;26.00;56.80
78876;DHT22;68253;52.506;5.486;2023-07-29T15:40:14;26.00;57.10
78876;DHT22;68253;52.506;5.486;2023-07-29T15:42:40;26.00;57.20
78876;DHT22;68253;52.506;5.486;2023-07-29T15:45:06;26.00;57.60
78876;DHT22;68253;52.506;5.486;2023-07-29T15:47:33;26.00;56.50